createdAt,value
2023-07-03T00:00:36.653Z,99939.81
2023-07-03T00:02:43.083Z,99938.13
2023-07-03T00:04:47.624Z,99933.94
2023-07-03T00:06:50.757Z,99928.91
2023-07-03T00:08:53.256Z,99939.66
2023-07-03T00:11:06.293Z,99940.69
2023-07-03T00:13:09.369Z,99938.63
2023-07-03T00:15:12.506Z,99937.38
2023-07-03T00:17:15.148Z,99936.19
2023-07-03T00:19:17.665Z,99935.56
2023-07-03T00:21:20.347Z,99933.25
2023-07-03T00:23:24.000Z,99930.13
2023-07-03T00:25:27.171Z,99926.97
2023-07-03T00:27:29.628Z,99929.06
2023-07-03T00:29:33.733Z,99927.38
2023-07-03T00:31:36.687Z,99929.13
2023-07-03T00:33:39.181Z,99930.38
2023-07-03T00:35:42.278Z,99919.91
2023-07-03T00:37:44.869Z,99921.16
2023-07-03T00:39:47.486Z,99922.44
2023-07-03T00:41:50.697Z,99911.13
2023-07-03T00:43:54.548Z,99918.69
2023-07-03T00:45:57.033Z,99923.72
2023-07-03T00:48:00.219Z,99922.72
2023-07-03T00:50:02.943Z,99919.59
2023-07-03T00:52:06.796Z,99921.69
2023-07-03T00:54:10.213Z,99922.53
2023-07-03T00:56:13.682Z,99920.03
2023-07-03T00:58:17.058Z,99923.38
2023-07-03T01:00:22.604Z,99922.16
2023-07-03T01:03:03.639Z,99920.91
2023-07-03T01:05:15.953Z,99939.78
2023-07-03T01:07:24.713Z,99933.06
2023-07-03T01:09:33.824Z,99934.53
2023-07-03T01:11:37.955Z,99934.34
2023-07-03T01:13:41.607Z,99931.19
2023-07-03T01:15:46.438Z,99934.56
2023-07-03T01:17:52.521Z,99947.75
2023-07-03T01:19:57.162Z,99946.28
2023-07-03T01:22:12.069Z,99942.31
2023-07-03T01:24:17.328Z,99940.25
2023-07-03T01:26:23.218Z,99938.97
2023-07-03T01:28:28.493Z,99944.00
2023-07-03T01:30:32.456Z,99946.09
2023-07-03T01:32:37.146Z,99953.00
2023-07-03T01:34:47.060Z,99951.97
2023-07-03T01:36:50.791Z,99955.97
2023-07-03T01:38:55.710Z,99963.69
2023-07-03T01:41:00.643Z,99962.66
2023-07-03T01:43:04.177Z,99960.31
2023-07-03T01:45:07.454Z,99972.66
2023-07-03T01:47:13.750Z,99979.34
2023-07-03T01:49:17.618Z,99980.00
2023-07-03T01:51:45.460Z,99982.28
2023-07-03T01:54:03.223Z,99969.28
2023-07-03T01:56:12.509Z,99973.47
2023-07-03T01:58:57.143Z,99966.75
2023-07-03T02:01:07.026Z,99965.72
2023-07-03T02:03:49.351Z,99968.84
2023-07-03T02:05:55.519Z,99963.16
2023-07-03T02:08:01.535Z,99968.19
2023-07-03T02:10:04.620Z,99966.91
2023-07-03T02:12:08.407Z,99965.63
2023-07-03T02:14:11.694Z,99969.81
2023-07-03T02:16:17.261Z,99964.78
2023-07-03T02:18:22.463Z,99967.91
2023-07-03T02:20:25.021Z,99958.47
2023-07-03T02:22:27.494Z,99956.13
2023-07-03T02:24:30.058Z,99955.69
2023-07-03T02:26:32.672Z,99961.56
2023-07-03T02:28:36.170Z,99967.59
2023-07-03T02:30:38.803Z,99964.25
2023-07-03T02:32:42.477Z,99971.97
2023-07-03T02:34:45.047Z,99965.69
2023-07-03T02:36:47.662Z,99962.09
2023-07-03T02:38:50.197Z,99967.72
2023-07-03T02:40:52.714Z,99965.63
2023-07-03T02:42:55.165Z,99961.22
2023-07-03T02:44:59.072Z,99972.50
2023-07-03T02:47:01.786Z,99978.34
2023-07-03T02:49:04.985Z,99982.50
2023-07-03T02:51:07.621Z,99983.09
2023-07-03T02:53:10.610Z,99980.56
2023-07-03T02:55:14.099Z,99973.66
2023-07-03T02:57:16.650Z,99981.38
2023-07-03T02:59:19.213Z,99967.81
2023-07-03T03:01:22.030Z,99966.50
2023-07-03T03:03:25.094Z,99978.81
2023-07-03T03:05:27.711Z,99974.81
2023-07-03T03:07:30.220Z,99974.72
2023-07-03T03:09:32.722Z,99974.69
2023-07-03T03:11:35.193Z,99969.66
2023-07-03T03:13:37.720Z,99972.56
2023-07-03T03:15:40.200Z,99974.00
2023-07-03T03:17:42.748Z,99974.59
2023-07-03T03:19:45.835Z,99978.75
2023-07-03T03:21:51.484Z,99970.34
2023-07-03T03:23:53.962Z,99969.91
2023-07-03T03:25:56.456Z,99976.94
2023-07-03T03:27:59.865Z,99971.50
2023-07-03T03:30:02.361Z,99980.25
2023-07-03T03:32:05.951Z,99983.34
2023-07-03T03:34:08.467Z,99980.19
2023-07-03T03:36:10.928Z,99979.56
2023-07-03T03:38:13.586Z,99978.06
2023-07-03T03:40:16.278Z,99972.56
2023-07-03T03:42:18.821Z,99978.38
2023-07-03T03:44:21.286Z,99986.25
2023-07-03T03:46:23.884Z,99974.78
2023-07-03T03:48:28.441Z,99979.56
2023-07-03T03:50:31.188Z,99979.91
2023-07-03T03:52:33.672Z,99983.84
2023-07-03T03:54:36.194Z,99981.13
2023-07-03T03:56:38.701Z,99985.06
2023-07-03T03:58:41.178Z,99985.44
2023-07-03T04:00:44.680Z,99981.44
2023-07-03T04:02:48.392Z,99983.50
2023-07-03T04:04:50.979Z,99981.81
2023-07-03T04:06:54.073Z,99968.84
2023-07-03T04:09:00.235Z,99969.03
2023-07-03T04:11:02.800Z,99977.56
2023-07-03T04:13:05.304Z,99974.19
2023-07-03T04:15:08.668Z,99976.63
2023-07-03T04:17:11.236Z,99965.78
2023-07-03T04:19:13.862Z,99965.31
2023-07-03T04:21:18.845Z,99962.38
2023-07-03T04:23:25.194Z,99959.00
2023-07-03T04:25:27.832Z,99962.94
2023-07-03T04:27:30.322Z,99963.31
2023-07-03T04:29:32.820Z,99965.56
2023-07-03T04:31:36.093Z,99963.69
2023-07-03T04:33:38.584Z,99963.22
2023-07-03T04:35:41.350Z,99957.16
2023-07-03T04:37:43.980Z,99957.34
2023-07-03T04:39:46.469Z,99962.09
2023-07-03T04:41:49.038Z,99957.94
2023-07-03T04:43:58.874Z,99964.56
2023-07-03T04:46:05.404Z,99965.97
2023-07-03T04:48:08.438Z,99958.22
2023-07-03T04:50:17.805Z,99957.56
2023-07-03T04:52:21.297Z,99958.94
2023-07-03T04:54:29.336Z,99959.13
2023-07-03T04:56:35.277Z,99965.13
2023-07-03T04:58:39.642Z,99959.88
2023-07-03T05:00:42.460Z,99965.69
2023-07-03T05:02:46.585Z,99971.28
2023-07-03T05:04:49.194Z,99977.06
2023-07-03T05:06:52.605Z,99971.00
2023-07-03T05:08:55.201Z,99964.94
2023-07-03T05:10:57.701Z,99972.41
2023-07-03T05:13:00.284Z,99979.03
2023-07-03T05:15:04.680Z,99976.50
2023-07-03T05:17:07.154Z,99979.78
2023-07-03T05:19:09.686Z,99975.59
2023-07-03T05:21:12.989Z,99975.59
2023-07-03T05:23:16.986Z,99979.50
2023-07-03T05:25:20.436Z,99983.41
2023-07-03T05:27:23.061Z,99982.75
2023-07-03T05:29:25.565Z,99983.13
2023-07-03T05:31:28.205Z,99994.31
2023-07-03T05:33:31.957Z,99999.91
2023-07-03T05:35:40.230Z,99997.38
2023-07-03T05:37:47.965Z,99992.38
2023-07-03T05:39:50.903Z,99996.09
2023-07-03T05:41:53.481Z,100001.88
2023-07-03T05:43:55.955Z,99996.84
2023-07-03T05:45:58.512Z,99998.88
2023-07-03T05:48:01.401Z,99994.66
2023-07-03T05:50:04.624Z,99996.72
2023-07-03T05:52:07.377Z,99988.78
2023-07-03T05:54:09.856Z,99991.66
2023-07-03T05:56:12.354Z,99989.53
2023-07-03T05:58:14.805Z,99985.97
2023-07-03T06:00:18.028Z,99981.78
2023-07-03T06:02:21.496Z,99979.22
2023-07-03T06:04:24.646Z,99976.50
2023-07-03T06:06:27.101Z,99978.75
2023-07-03T06:08:29.609Z,99978.06
2023-07-03T06:10:32.145Z,99980.97
2023-07-03T06:12:35.064Z,99984.88
2023-07-03T06:14:37.604Z,99973.38
2023-07-03T06:16:40.702Z,99973.75
2023-07-03T06:18:43.262Z,99975.78
2023-07-03T06:20:45.813Z,99982.88
2023-07-03T06:22:48.338Z,99984.94
2023-07-03T06:24:51.026Z,99976.19
2023-07-03T06:26:54.055Z,99972.81
2023-07-03T06:28:56.605Z,99974.50
2023-07-03T06:30:59.109Z,99971.13
2023-07-03T06:33:01.710Z,99969.81
2023-07-03T06:35:08.300Z,99971.00
2023-07-03T06:37:11.069Z,99974.72
2023-07-03T06:39:14.035Z,99972.56
2023-07-03T06:41:16.562Z,99985.06
2023-07-03T06:43:19.110Z,99980.84
2023-07-03T06:45:21.575Z,99976.63
2023-07-03T06:47:24.224Z,99974.16
2023-07-03T06:49:27.230Z,99973.31
2023-07-03T06:51:30.615Z,99973.66
2023-07-03T06:53:33.515Z,99970.28
2023-07-03T06:55:35.977Z,99974.03
2023-07-03T06:57:38.574Z,99963.56
2023-07-03T06:59:41.135Z,99972.69
2023-07-03T07:01:43.702Z,99969.31
2023-07-03T07:03:46.582Z,99969.97
2023-07-03T07:05:49.629Z,99972.19
2023-07-03T07:07:52.472Z,99978.81
2023-07-03T07:09:55.129Z,99973.75
2023-07-03T07:11:57.569Z,99964.97
2023-07-03T07:14:01.665Z,99963.50
2023-07-03T07:16:04.255Z,99966.22
2023-07-03T07:18:08.857Z,99964.53
2023-07-03T07:20:11.812Z,99971.13
2023-07-03T07:22:17.545Z,99972.50
2023-07-03T07:24:22.219Z,99973.50
2023-07-03T07:26:35.383Z,99977.22
2023-07-03T07:28:37.988Z,99980.78
2023-07-03T07:30:40.471Z,99977.59
2023-07-03T07:32:43.022Z,99980.47
2023-07-03T07:34:45.534Z,99981.31
2023-07-03T07:36:48.017Z,99976.91
2023-07-03T07:38:52.100Z,99987.06
2023-07-03T07:41:03.830Z,99982.66
2023-07-03T07:43:06.745Z,99980.28
2023-07-03T07:45:09.679Z,99981.34
2023-07-03T07:47:12.675Z,99984.22
2023-07-03T07:49:15.198Z,99989.97
2023-07-03T07:51:17.756Z,99993.69
2023-07-03T07:53:20.751Z,99980.34
2023-07-03T07:55:23.250Z,99985.75
2023-07-03T07:57:27.082Z,99986.09
2023-07-03T07:59:29.657Z,99986.94
2023-07-03T08:01:32.790Z,99981.53
2023-07-03T08:03:35.498Z,99990.84
2023-07-03T08:05:38.872Z,99990.84
2023-07-03T08:07:41.343Z,99982.75
2023-07-03T08:09:44.354Z,99984.59
2023-07-03T08:11:46.873Z,99987.47
2023-07-03T08:13:49.530Z,99976.16
2023-07-03T08:15:53.083Z,99981.56
2023-07-03T08:17:56.120Z,99978.19
2023-07-03T08:19:58.625Z,99973.66
2023-07-03T08:22:01.208Z,99974.47
2023-07-03T08:24:04.979Z,99976.00
2023-07-03T08:26:08.414Z,99976.34
2023-07-03T08:28:11.766Z,99979.88
2023-07-03T08:30:15.208Z,99995.09
2023-07-03T08:32:17.734Z,100001.31
2023-07-03T08:34:20.230Z,99995.25
2023-07-03T08:38:29.236Z,99998.78
2023-07-03T08:40:31.911Z,99995.91
2023-07-03T08:42:57.105Z,99997.97
2023-07-03T08:45:00.033Z,99994.41
2023-07-03T08:47:11.329Z,99986.97
2023-07-03T08:49:16.839Z,100003.00
2023-07-03T08:51:23.701Z,99998.63
2023-07-03T08:53:31.787Z,99996.09
2023-07-03T08:55:44.436Z,99996.75
2023-07-03T08:57:47.329Z,100001.31
2023-07-03T08:59:50.010Z,100001.31
2023-07-03T09:01:52.704Z,100006.72
2023-07-03T09:04:13.771Z,100009.44
2023-07-03T09:06:34.290Z,100013.81
2023-07-03T09:08:48.722Z,100011.13
2023-07-03T09:10:51.850Z,100015.69
2023-07-03T09:13:13.168Z,100015.50
2023-07-03T09:15:30.647Z,100018.22
2023-07-03T09:17:34.439Z,100018.38
2023-07-03T09:19:39.389Z,100021.09
2023-07-03T09:21:42.578Z,100020.06
2023-07-03T09:23:53.731Z,100018.22
2023-07-03T09:26:13.519Z,100021.75
2023-07-03T09:28:16.087Z,100020.72
2023-07-03T09:30:18.662Z,100013.66
2023-07-03T09:32:30.591Z,100018.03
2023-07-03T09:34:59.249Z,100028.66
2023-07-03T09:37:04.922Z,100028.66
2023-07-03T09:39:13.855Z,100030.34
2023-07-03T09:41:26.746Z,100032.03
2023-07-03T09:43:31.168Z,100041.16
2023-07-03T09:45:36.230Z,100037.44
2023-07-03T09:47:39.063Z,100039.13
2023-07-03T09:49:41.578Z,100040.81
2023-07-03T09:51:44.603Z,100039.81
2023-07-03T09:53:47.122Z,100049.59
2023-07-03T09:55:56.713Z,100046.03
2023-07-03T09:57:59.977Z,100041.31
2023-07-03T10:00:14.220Z,100049.25
2023-07-03T10:07:09.376Z,100048.91
2023-07-03T10:13:43.585Z,100057.19
2023-07-03T10:15:46.539Z,100063.44
2023-07-03T10:18:27.370Z,100057.66
2023-07-03T10:20:43.316Z,100057.66
2023-07-03T10:22:46.125Z,100054.78
2023-07-03T10:24:50.318Z,100057.31
2023-07-03T10:26:59.111Z,100060.88
2023-07-03T10:29:26.584Z,100056.47
2023-07-03T10:31:39.562Z,100057.81
2023-07-03T10:33:48.392Z,100064.06
2023-07-03T10:35:52.904Z,100063.06
2023-07-03T10:38:00.893Z,100059.34
2023-07-03T10:40:17.257Z,100058.31
2023-07-03T10:42:29.046Z,100067.09
2023-07-03T10:44:34.275Z,100067.94
2023-07-03T10:46:49.380Z,100074.19
2023-07-03T10:48:53.047Z,100066.09
2023-07-03T10:51:25.054Z,100062.34
2023-07-03T10:53:48.528Z,100078.06
2023-07-03T10:56:12.178Z,100069.94
2023-07-03T10:58:26.252Z,100076.88
2023-07-03T11:00:51.457Z,100087.28
2023-07-03T11:03:27.814Z,100087.97
2023-07-03T11:05:38.515Z,100081.53
2023-07-03T11:07:57.476Z,100089.97
2023-07-03T11:10:15.612Z,100099.09
2023-07-03T11:12:27.031Z,100091.66
2023-07-03T11:14:38.040Z,100096.72
2023-07-03T11:17:09.336Z,100097.38
2023-07-03T11:19:57.643Z,100099.25
2023-07-03T11:24:32.257Z,100114.78
2023-07-03T11:28:51.735Z,100106.44
2023-07-03T11:30:55.899Z,100109.81
2023-07-03T11:33:01.441Z,100105.25
2023-07-03T11:39:51.523Z,100118.75
2023-07-03T11:44:22.004Z,100109.25
2023-07-03T11:46:28.688Z,100108.41
2023-07-03T11:48:39.664Z,100107.06
2023-07-03T11:50:42.104Z,100107.72
2023-07-03T11:52:48.668Z,100098.75
2023-07-03T11:55:01.403Z,100101.06
2023-07-03T11:57:31.051Z,100108.19
2023-07-03T11:59:37.729Z,100106.97
2023-07-03T12:01:40.310Z,100110.34
2023-07-03T12:03:55.025Z,100109.16
2023-07-03T12:05:58.867Z,100111.69
2023-07-03T12:08:02.414Z,100110.31
2023-07-03T12:10:20.210Z,100114.38
2023-07-03T12:12:28.252Z,100120.44
2023-07-03T12:14:58.502Z,100115.69
2023-07-03T12:17:01.161Z,100107.38
2023-07-03T12:19:11.213Z,100112.25
2023-07-03T12:21:14.064Z,100113.75
2023-07-03T12:23:32.645Z,100113.41
2023-07-03T12:25:35.200Z,100106.78
2023-07-03T12:27:40.728Z,100111.84
2023-07-03T12:29:47.182Z,100104.38
2023-07-03T12:32:08.963Z,100103.38
2023-07-03T12:34:11.481Z,100103.16
2023-07-03T12:36:20.846Z,100103.63
2023-07-03T12:38:23.895Z,100107.00
2023-07-03T12:40:27.670Z,100109.53
2023-07-03T12:42:30.212Z,100101.41
2023-07-03T12:44:32.804Z,100098.34
2023-07-03T12:46:40.912Z,100098.00
2023-07-03T12:48:44.370Z,100106.09
2023-07-03T12:50:58.483Z,100113.69
2023-07-03T12:53:02.614Z,100109.78
2023-07-03T12:55:14.574Z,100110.22
2023-07-03T12:57:18.891Z,100109.03
2023-07-03T12:59:25.486Z,100110.72
2023-07-03T13:01:29.754Z,100105.94
2023-07-03T13:03:32.426Z,100111.19
2023-07-03T13:05:37.582Z,100104.56
2023-07-03T13:07:44.738Z,100103.34
2023-07-03T13:09:47.441Z,100108.41
2023-07-03T13:11:50.185Z,100119.91
2023-07-03T13:14:08.152Z,100112.25
2023-07-03T13:16:18.490Z,100117.47
2023-07-03T13:18:24.334Z,100113.56
2023-07-03T13:20:29.794Z,100123.84
2023-07-03T13:22:34.453Z,100115.56
2023-07-03T13:25:39.412Z,100115.00
2023-07-03T13:27:42.715Z,100122.78
2023-07-03T13:29:45.249Z,100123.44
2023-07-03T13:31:52.742Z,100115.97
2023-07-03T13:36:41.826Z,100132.13
2023-07-03T13:38:44.383Z,100139.22
2023-07-03T13:40:48.568Z,100138.66
2023-07-03T13:42:58.286Z,100133.72
2023-07-03T13:45:00.811Z,100127.94
2023-07-03T13:47:03.322Z,100139.22
2023-07-03T13:49:07.645Z,100138.84
2023-07-03T13:51:10.119Z,100137.63
2023-07-03T13:53:12.953Z,100142.69
2023-07-03T13:55:15.419Z,100142.31
2023-07-03T13:57:17.927Z,100142.59
2023-07-03T13:59:20.485Z,100137.84
2023-07-03T14:01:26.801Z,100141.03
2023-07-03T14:03:29.766Z,100155.03
2023-07-03T14:05:32.335Z,100140.25
2023-07-03T14:07:34.852Z,100148.84
2023-07-03T14:09:37.317Z,100144.06
2023-07-03T14:11:39.930Z,100146.41
2023-07-03T14:13:45.561Z,100146.03
2023-07-03T14:15:48.568Z,100143.84
2023-07-03T14:17:51.375Z,100143.41
2023-07-03T14:19:54.200Z,100142.88
2023-07-03T14:21:56.745Z,100145.84
2023-07-03T14:23:59.996Z,100148.00
2023-07-03T14:26:07.123Z,100151.84
2023-07-03T14:28:09.591Z,100155.63
2023-07-03T14:30:13.672Z,100163.03
2023-07-03T14:32:16.239Z,100154.31
2023-07-03T14:34:18.780Z,100162.72
2023-07-03T14:36:21.274Z,100164.66
2023-07-03T14:38:24.390Z,100160.31
2023-07-03T14:40:27.053Z,100154.97
2023-07-03T14:42:29.653Z,100165.06
2023-07-03T14:44:32.304Z,100162.63
2023-07-03T14:46:34.837Z,100164.56
2023-07-03T14:48:37.392Z,100173.00
2023-07-03T14:50:39.945Z,100170.34
2023-07-03T14:52:47.983Z,100169.72
2023-07-03T14:54:50.714Z,100167.28
2023-07-03T14:56:53.912Z,100166.69
2023-07-03T14:58:56.384Z,100169.66
2023-07-03T15:01:03.029Z,100163.63
2023-07-03T15:03:05.596Z,100160.72
2023-07-03T15:05:08.950Z,100158.06
2023-07-03T15:07:11.405Z,100161.88
2023-07-03T15:09:13.822Z,100151.06
2023-07-03T15:11:18.806Z,100152.94
2023-07-03T15:13:22.078Z,100157.63
2023-07-03T15:15:24.577Z,100159.56
2023-07-03T15:17:27.100Z,100158.13
2023-07-03T15:19:29.712Z,100162.09
2023-07-03T15:21:33.421Z,100156.91
2023-07-03T15:23:36.189Z,100158.59
2023-07-03T15:25:38.792Z,100162.41
2023-07-03T15:27:41.287Z,100158.03
2023-07-03T15:29:43.762Z,100158.25
2023-07-03T15:31:46.507Z,100157.84
2023-07-03T15:33:49.044Z,100158.09
2023-07-03T15:35:56.374Z,100157.91
2023-07-03T15:37:59.073Z,100168.81
2023-07-03T15:40:01.540Z,100161.72
2023-07-03T15:42:04.066Z,100156.72
2023-07-03T15:44:06.735Z,100153.41
2023-07-03T15:46:17.984Z,100148.84
2023-07-03T15:48:20.403Z,100145.50
2023-07-03T15:50:22.917Z,100150.13
2023-07-03T15:52:25.683Z,100153.06
2023-07-03T15:54:28.189Z,100158.75
2023-07-03T15:56:31.091Z,100158.53
2023-07-03T15:58:39.561Z,100155.00
2023-07-03T16:00:42.240Z,100153.56
2023-07-03T16:02:44.805Z,100149.38
2023-07-03T16:04:47.465Z,100146.88
2023-07-03T16:06:50.026Z,100152.31
2023-07-03T16:08:56.441Z,100150.66
2023-07-03T16:10:58.977Z,100146.28
2023-07-03T16:13:01.709Z,100150.28
2023-07-03T16:15:04.402Z,100145.84
2023-07-03T16:17:06.912Z,100135.16
2023-07-03T16:19:09.481Z,100141.47
2023-07-03T16:21:14.613Z,100131.63
2023-07-03T16:23:17.073Z,100129.91
2023-07-03T16:25:19.536Z,100127.59
2023-07-03T16:27:22.129Z,100139.56
2023-07-03T16:29:24.616Z,100132.22
2023-07-03T16:31:29.741Z,100134.72
2023-07-03T16:33:34.903Z,100120.25
2023-07-03T16:35:37.342Z,100128.44
2023-07-03T16:37:40.022Z,100132.22
2023-07-03T16:39:42.547Z,100119.38
2023-07-03T16:41:45.100Z,100108.66
2023-07-03T16:43:49.728Z,100120.38
2023-07-03T16:45:52.524Z,100127.06
2023-07-03T16:47:55.774Z,100113.84
2023-07-03T16:49:58.298Z,100116.75
2023-07-03T16:52:00.976Z,100115.28
2023-07-03T16:54:03.804Z,100113.56
2023-07-03T16:56:12.227Z,100107.22
2023-07-03T16:58:14.744Z,100104.72
2023-07-03T17:00:17.759Z,100108.47
2023-07-03T17:02:20.274Z,100100.88
2023-07-03T17:04:23.384Z,100106.28
2023-07-03T17:06:36.526Z,100103.91
2023-07-03T17:08:39.047Z,100094.59
2023-07-03T17:10:41.569Z,100093.50
2023-07-03T17:12:44.378Z,100096.81
2023-07-03T17:14:46.880Z,100101.19
2023-07-03T17:16:49.441Z,100096.72
2023-07-03T17:18:51.980Z,100095.84
2023-07-03T17:20:54.512Z,100098.53
2023-07-03T17:22:57.019Z,100097.84
2023-07-03T17:24:59.514Z,100099.06
2023-07-03T17:27:01.976Z,100098.19
2023-07-03T17:29:08.524Z,100092.88
2023-07-03T17:31:11.450Z,100089.22
2023-07-03T17:33:14.100Z,100084.53
2023-07-03T17:35:17.283Z,100086.13
2023-07-03T17:37:19.797Z,100083.94
2023-07-03T17:39:22.308Z,100090.41
2023-07-03T17:41:25.084Z,100080.47
2023-07-03T17:43:27.641Z,100068.84
2023-07-03T17:45:30.111Z,100069.34
2023-07-03T17:47:32.920Z,100057.50
2023-07-03T17:49:35.472Z,100064.56
2023-07-03T17:51:37.983Z,100064.47
2023-07-03T17:53:42.015Z,100065.00
2023-07-03T17:55:45.221Z,100062.56
2023-07-03T17:57:47.770Z,100063.69
2023-07-03T17:59:50.272Z,100055.75
2023-07-03T18:01:52.850Z,100053.72
2023-07-03T18:03:55.570Z,100061.38
2023-07-03T18:05:58.736Z,100070.13
2023-07-03T18:08:01.858Z,100068.13
2023-07-03T18:10:04.653Z,100073.50
2023-07-03T18:12:07.731Z,100069.44
2023-07-03T18:14:10.556Z,100070.41
2023-07-03T18:16:13.236Z,100066.72
2023-07-03T18:18:15.909Z,100061.72
2023-07-03T18:20:18.385Z,100065.19
2023-07-03T18:22:20.891Z,100066.72
2023-07-03T18:24:23.481Z,100060.06
2023-07-03T18:26:25.977Z,100051.50
2023-07-03T18:28:28.605Z,100052.19
2023-07-03T18:30:31.719Z,100061.75
2023-07-03T18:32:35.618Z,100059.72
2023-07-03T18:34:38.189Z,100052.31
2023-07-03T18:36:41.150Z,100056.22
2023-07-03T18:38:43.949Z,100060.38
2023-07-03T18:40:46.545Z,100057.16
2023-07-03T18:42:49.097Z,100068.16
2023-07-03T18:44:51.568Z,100053.34
2023-07-03T18:46:54.074Z,100056.44
2023-07-03T18:48:56.730Z,100055.38
2023-07-03T18:50:59.188Z,100061.22
2023-07-03T18:53:01.680Z,100054.28
2023-07-03T18:55:04.660Z,100061.47
2023-07-03T18:57:07.191Z,100062.88
2023-07-03T18:59:10.092Z,100063.25
2023-07-03T19:01:16.793Z,100065.72
2023-07-03T19:03:20.761Z,100057.63
2023-07-03T19:05:23.226Z,100059.28
2023-07-03T19:07:25.790Z,100055.94
2023-07-03T19:09:28.239Z,100055.47
2023-07-03T19:11:31.305Z,100054.50
2023-07-03T19:13:34.415Z,100058.19
2023-07-03T19:15:37.032Z,100059.59
2023-07-03T19:17:40.005Z,100055.28
2023-07-03T19:19:42.578Z,100065.06
2023-07-03T19:21:45.129Z,100058.59
2023-07-03T19:23:47.711Z,100067.84
2023-07-03T19:25:54.785Z,100066.38
2023-07-03T19:27:57.608Z,100063.84
2023-07-03T19:30:00.611Z,100056.03
2023-07-03T19:32:03.168Z,100051.22
2023-07-03T19:34:05.708Z,100050.19
2023-07-03T19:36:18.710Z,100055.78
2023-07-03T19:38:21.228Z,100042.38
2023-07-03T19:40:23.834Z,100041.03
2023-07-03T19:42:26.398Z,100036.38
2023-07-03T19:44:28.997Z,100039.38
2023-07-03T19:46:31.749Z,100030.78
2023-07-03T19:48:35.313Z,100031.84
2023-07-03T19:50:39.591Z,100037.34
2023-07-03T19:52:42.094Z,100035.19
2023-07-03T19:54:44.546Z,100029.69
2023-07-03T19:56:47.162Z,100032.38
2023-07-03T19:58:49.954Z,100035.44
2023-07-03T20:00:57.449Z,100030.53
2023-07-03T20:03:00.436Z,100031.72
2023-07-03T20:05:03.012Z,100026.03
2023-07-03T20:07:05.607Z,100028.53
2023-07-03T20:09:08.226Z,100024.22
2023-07-03T20:11:10.888Z,100023.38
2023-07-03T20:13:14.796Z,100028.63
2023-07-03T20:15:17.781Z,100022.53
2023-07-03T20:17:20.307Z,100032.72
2023-07-03T20:19:22.991Z,100030.28
2023-07-03T20:21:26.419Z,100039.09
2023-07-03T20:23:28.988Z,100030.94
2023-07-03T20:25:31.756Z,100024.84
2023-07-03T20:27:34.275Z,100033.69
2023-07-03T20:29:37.314Z,100032.84
2023-07-03T20:31:39.782Z,100039.09
2023-07-03T20:33:42.566Z,100035.81
2023-07-03T20:35:45.258Z,100036.81
2023-07-03T20:37:47.765Z,100038.38
2023-07-03T20:39:50.338Z,100041.88
2023-07-03T20:41:53.043Z,100036.50
2023-07-03T20:43:57.002Z,100038.38
2023-07-03T20:46:03.022Z,100026.44
2023-07-03T20:48:05.892Z,100032.44
2023-07-03T20:50:11.559Z,100033.44
2023-07-03T20:52:15.989Z,100035.03
2023-07-03T20:54:34.676Z,100037.69
2023-07-03T20:56:39.438Z,100027.69
2023-07-03T20:58:43.602Z,100033.69
2023-07-03T21:00:46.181Z,100034.19
2023-07-03T21:02:48.745Z,100035.19
2023-07-03T21:04:51.311Z,100045.00
2023-07-03T21:06:57.090Z,100043.22
2023-07-03T21:09:00.535Z,100049.44
2023-07-03T21:11:03.067Z,100050.75
2023-07-03T21:13:05.670Z,100046.88
2023-07-03T21:15:11.563Z,100044.00
2023-07-03T21:17:14.216Z,100046.16
2023-07-03T21:19:16.692Z,100055.16
2023-07-03T21:21:20.621Z,100057.53
2023-07-03T21:23:23.462Z,100046.78
2023-07-03T21:25:26.061Z,100036.53
2023-07-03T21:27:30.214Z,100041.97
2023-07-03T21:29:33.421Z,100035.03
2023-07-03T21:31:37.446Z,100028.34
2023-07-03T21:33:40.442Z,100030.50
2023-07-03T21:35:42.960Z,100020.25
2023-07-03T21:37:45.428Z,100022.38
2023-07-03T21:39:47.868Z,100020.09
2023-07-03T21:41:50.438Z,100015.13
2023-07-03T21:43:55.184Z,100015.63
2023-07-03T21:46:06.236Z,100008.94
2023-07-03T21:48:08.773Z,100015.97
2023-07-03T21:50:11.675Z,100010.97
2023-07-03T21:52:14.121Z,100012.53
2023-07-03T21:54:20.455Z,100013.88
2023-07-03T21:56:34.231Z,100023.44
2023-07-03T21:58:38.198Z,100027.50
2023-07-03T22:00:40.652Z,100022.47
2023-07-03T22:02:43.190Z,100021.03
2023-07-03T22:04:45.726Z,100023.19
2023-07-03T22:06:48.235Z,100015.44
2023-07-03T22:08:50.934Z,100019.25
2023-07-03T22:10:53.949Z,100015.09
2023-07-03T22:12:56.849Z,100015.31
2023-07-03T22:14:59.327Z,100017.97
2023-07-03T22:17:01.854Z,100022.03
2023-07-03T22:19:04.474Z,100018.91
2023-07-03T22:21:07.006Z,100020.22
2023-07-03T22:23:10.914Z,100023.78
2023-07-03T22:25:13.579Z,100025.47
2023-07-03T22:27:16.135Z,100027.88
2023-07-03T22:29:18.761Z,100030.16
2023-07-03T22:31:21.885Z,100040.63
2023-07-03T22:33:25.077Z,100027.50
2023-07-03T22:35:27.565Z,100039.78
2023-07-03T22:37:30.058Z,100031.78
2023-07-03T22:39:32.541Z,100029.28
2023-07-03T22:41:35.012Z,100033.34
2023-07-03T22:43:38.487Z,100029.75
2023-07-03T22:45:40.927Z,100036.56
2023-07-03T22:47:43.575Z,100038.09
2023-07-03T22:49:48.910Z,100042.19
2023-07-03T22:51:53.406Z,100047.09
2023-07-03T22:53:55.875Z,100050.31
2023-07-03T22:55:58.448Z,100060.06
2023-07-03T22:58:01.006Z,100069.84
2023-07-03T23:00:11.767Z,100075.78
2023-07-03T23:02:15.040Z,100074.59
2023-07-03T23:04:18.353Z,100078.41
2023-07-03T23:06:21.884Z,100077.25
2023-07-03T23:08:25.802Z,100081.53
2023-07-03T23:10:28.299Z,100080.31
2023-07-03T23:12:30.840Z,100086.75
2023-07-03T23:14:33.319Z,100090.22
2023-07-03T23:16:36.118Z,100095.34
2023-07-03T23:18:40.336Z,100097.47
2023-07-03T23:20:43.154Z,100096.28
2023-07-03T23:22:46.037Z,100098.88
2023-07-03T23:24:48.540Z,100087.97
2023-07-03T23:26:54.074Z,100090.97
2023-07-03T23:28:56.533Z,100084.28
2023-07-03T23:31:03.912Z,100096.78
2023-07-03T23:33:06.610Z,100100.81
2023-07-03T23:35:12.491Z,100089.03
2023-07-03T23:37:18.212Z,100080.66
2023-07-03T23:39:20.873Z,100076.47
2023-07-03T23:41:23.378Z,100073.63
2023-07-03T23:43:26.460Z,100078.72
2023-07-03T23:45:28.977Z,100082.78
2023-07-03T23:47:31.517Z,100087.25
2023-07-03T23:49:34.330Z,100091.53
2023-07-03T23:51:38.652Z,100086.16
2023-07-03T23:53:44.398Z,100096.75
2023-07-03T23:55:46.925Z,100098.28
2023-07-03T23:57:49.430Z,100100.41
2023-07-03T23:59:51.907Z,100097.03
